sensor_id;sensor_type;location;lat;lon;timestamp;P1;durP1;ratioP1;P2;durP2;ratioP2
44987;SDS011;35735;52.226;21.254;2023-06-14T00:01:23;12.98;;;8.68;;
44987;SDS011;35735;52.226;21.254;2023-06-14T00:06:24;11.65;;;8.77;;
44987;SDS011;35735;52.226;21.254;2023-06-14T00:11:25;11.02;;;8.55;;
44987;SDS011;35735;52.226;21.254;2023-06-14T00:16:25;14.32;;;8.80;;
44987;SDS011;35735;52.226;21.254;2023-06-14T00:21:26;12.57;;;8.50;;
44987;SDS011;35735;52.226;21.254;2023-06-14T00:26:26;14.55;;;8.13;;
44987;SDS011;35735;52.226;21.254;2023-06-14T00:31:27;10.70;;;7.82;;
44987;SDS011;35735;52.226;21.254;2023-06-14T00:36:27;15.90;;;7.95;;
44987;SDS011;35735;52.226;21.254;2023-06-14T00:41:28;9.60;;;7.40;;
44987;SDS011;35735;52.226;21.254;2023-06-14T00:46:28;9.63;;;7.25;;
44987;SDS011;35735;52.226;21.254;2023-06-14T00:51:29;9.40;;;6.57;;
44987;SDS011;35735;52.226;21.254;2023-06-14T00:56:30;6.62;;;5.87;;
44987;SDS011;35735;52.226;21.254;2023-06-14T01:01:30;7.82;;;6.20;;
44987;SDS011;35735;52.226;21.254;2023-06-14T01:06:33;7.95;;;6.12;;
44987;SDS011;35735;52.226;21.254;2023-06-14T01:11:41;8.95;;;6.28;;
44987;SDS011;35735;52.226;21.254;2023-06-14T01:16:58;8.70;;;6.47;;
44987;SDS011;35735;52.226;21.254;2023-06-14T01:22:00;7.28;;;6.30;;
44987;SDS011;35735;52.226;21.254;2023-06-14T01:27:01;8.88;;;6.18;;
44987;SDS011;35735;52.226;21.254;2023-06-14T01:32:03;6.65;;;5.53;;
44987;SDS011;35735;52.226;21.254;2023-06-14T01:37:05;7.15;;;5.87;;
44987;SDS011;35735;52.226;21.254;2023-06-14T01:42:07;8.65;;;6.18;;
44987;SDS011;35735;52.226;21.254;2023-06-14T01:47:08;13.75;;;6.70;;
44987;SDS011;35735;52.226;21.254;2023-06-14T01:52:09;8.65;;;6.20;;
44987;SDS011;35735;52.226;21.254;2023-06-14T01:57:11;6.75;;;6.03;;
44987;SDS011;35735;52.226;21.254;2023-06-14T02:02:12;8.57;;;5.85;;
44987;SDS011;35735;52.226;21.254;2023-06-14T02:07:13;9.57;;;6.07;;
44987;SDS011;35735;52.226;21.254;2023-06-14T02:12:14;7.25;;;6.50;;
44987;SDS011;35735;52.226;21.254;2023-06-14T02:17:14;9.48;;;5.97;;
44987;SDS011;35735;52.226;21.254;2023-06-14T02:22:15;8.02;;;6.25;;
44987;SDS011;35735;52.226;21.254;2023-06-14T02:27:15;6.65;;;5.85;;
44987;SDS011;35735;52.226;21.254;2023-06-14T02:32:16;8.63;;;6.78;;
44987;SDS011;35735;52.226;21.254;2023-06-14T02:37:16;8.98;;;6.43;;
44987;SDS011;35735;52.226;21.254;2023-06-14T02:42:17;7.47;;;6.57;;
44987;SDS011;35735;52.226;21.254;2023-06-14T02:47:18;11.32;;;7.22;;
44987;SDS011;35735;52.226;21.254;2023-06-14T02:52:19;7.75;;;6.78;;
44987;SDS011;35735;52.226;21.254;2023-06-14T02:57:20;9.18;;;6.82;;
44987;SDS011;35735;52.226;21.254;2023-06-14T03:02:22;9.25;;;7.20;;
44987;SDS011;35735;52.226;21.254;2023-06-14T03:07:22;8.50;;;6.85;;
44987;SDS011;35735;52.226;21.254;2023-06-14T03:12:23;7.80;;;6.43;;
44987;SDS011;35735;52.226;21.254;2023-06-14T03:17:24;7.87;;;6.93;;
44987;SDS011;35735;52.226;21.254;2023-06-14T03:22:24;8.98;;;7.30;;
44987;SDS011;35735;52.226;21.254;2023-06-14T03:27:25;9.52;;;6.68;;
44987;SDS011;35735;52.226;21.254;2023-06-14T03:32:25;9.32;;;6.40;;
44987;SDS011;35735;52.226;21.254;2023-06-14T03:37:26;7.03;;;6.15;;
44987;SDS011;35735;52.226;21.254;2023-06-14T03:42:26;8.35;;;6.60;;
44987;SDS011;35735;52.226;21.254;2023-06-14T03:47:27;8.02;;;6.55;;
44987;SDS011;35735;52.226;21.254;2023-06-14T03:52:27;7.50;;;6.22;;
44987;SDS011;35735;52.226;21.254;2023-06-14T03:57:29;8.02;;;6.10;;
44987;SDS011;35735;52.226;21.254;2023-06-14T04:02:30;8.27;;;6.07;;
44987;SDS011;35735;52.226;21.254;2023-06-14T04:07:30;10.15;;;6.30;;
44987;SDS011;35735;52.226;21.254;2023-06-14T04:12:31;9.18;;;6.85;;
44987;SDS011;35735;52.226;21.254;2023-06-14T04:17:32;7.95;;;5.97;;
44987;SDS011;35735;52.226;21.254;2023-06-14T04:22:34;8.80;;;6.95;;
44987;SDS011;35735;52.226;21.254;2023-06-14T04:27:35;9.10;;;6.70;;
44987;SDS011;35735;52.226;21.254;2023-06-14T04:32:36;10.40;;;6.65;;
44987;SDS011;35735;52.226;21.254;2023-06-14T04:37:36;8.57;;;6.97;;
44987;SDS011;35735;52.226;21.254;2023-06-14T04:42:37;8.98;;;6.37;;
44987;SDS011;35735;52.226;21.254;2023-06-14T04:47:38;9.88;;;6.62;;
44987;SDS011;35735;52.226;21.254;2023-06-14T04:52:38;7.37;;;6.10;;
44987;SDS011;35735;52.226;21.254;2023-06-14T04:57:39;7.62;;;5.95;;
44987;SDS011;35735;52.226;21.254;2023-06-14T05:02:39;10.18;;;6.50;;
44987;SDS011;35735;52.226;21.254;2023-06-14T05:07:40;8.73;;;7.20;;
44987;SDS011;35735;52.226;21.254;2023-06-14T05:12:40;10.80;;;6.43;;
44987;SDS011;35735;52.226;21.254;2023-06-14T05:17:41;9.75;;;6.00;;
44987;SDS011;35735;52.226;21.254;2023-06-14T05:22:42;7.85;;;6.15;;
44987;SDS011;35735;52.226;21.254;2023-06-14T05:27:42;8.80;;;6.80;;
44987;SDS011;35735;52.226;21.254;2023-06-14T05:32:43;8.90;;;7.05;;
44987;SDS011;35735;52.226;21.254;2023-06-14T05:37:43;8.93;;;6.82;;
44987;SDS011;35735;52.226;21.254;2023-06-14T05:42:44;9.32;;;8.00;;
44987;SDS011;35735;52.226;21.254;2023-06-14T05:47:44;9.82;;;7.12;;
44987;SDS011;35735;52.226;21.254;2023-06-14T05:52:45;11.88;;;7.45;;
44987;SDS011;35735;52.226;21.254;2023-06-14T05:57:45;9.07;;;7.10;;
44987;SDS011;35735;52.226;21.254;2023-06-14T06:02:46;10.23;;;7.75;;
44987;SDS011;35735;52.226;21.254;2023-06-14T06:07:47;13.85;;;9.02;;
44987;SDS011;35735;52.226;21.254;2023-06-14T06:12:47;8.50;;;7.60;;
44987;SDS011;35735;52.226;21.254;2023-06-14T06:17:48;9.65;;;7.35;;
44987;SDS011;35735;52.226;21.254;2023-06-14T06:22:48;8.23;;;7.30;;
44987;SDS011;35735;52.226;21.254;2023-06-14T06:27:49;9.68;;;7.78;;
44987;SDS011;35735;52.226;21.254;2023-06-14T06:32:49;9.77;;;7.68;;
44987;SDS011;35735;52.226;21.254;2023-06-14T06:37:50;8.82;;;7.18;;
44987;SDS011;35735;52.226;21.254;2023-06-14T06:42:51;10.27;;;7.35;;
44987;SDS011;35735;52.226;21.254;2023-06-14T06:47:51;11.68;;;7.57;;
44987;SDS011;35735;52.226;21.254;2023-06-14T06:52:52;11.65;;;7.78;;
44987;SDS011;35735;52.226;21.254;2023-06-14T06:57:52;10.60;;;7.95;;
44987;SDS011;35735;52.226;21.254;2023-06-14T07:02:53;8.00;;;6.97;;
44987;SDS011;35735;52.226;21.254;2023-06-14T07:07:53;9.52;;;7.45;;
44987;SDS011;35735;52.226;21.254;2023-06-14T07:12:54;8.30;;;7.15;;
44987;SDS011;35735;52.226;21.254;2023-06-14T07:17:55;9.32;;;7.10;;
44987;SDS011;35735;52.226;21.254;2023-06-14T07:22:55;8.50;;;6.45;;
44987;SDS011;35735;52.226;21.254;2023-06-14T07:27:56;8.15;;;6.82;;
44987;SDS011;35735;52.226;21.254;2023-06-14T07:32:56;11.15;;;7.97;;
44987;SDS011;35735;52.226;21.254;2023-06-14T07:37:57;8.95;;;7.40;;
44987;SDS011;35735;52.226;21.254;2023-06-14T07:42:57;9.95;;;6.53;;
44987;SDS011;35735;52.226;21.254;2023-06-14T07:47:58;8.43;;;5.60;;
44987;SDS011;35735;52.226;21.254;2023-06-14T07:52:58;7.60;;;5.60;;
44987;SDS011;35735;52.226;21.254;2023-06-14T07:57:59;7.80;;;5.28;;
44987;SDS011;35735;52.226;21.254;2023-06-14T08:02:59;8.27;;;5.37;;
44987;SDS011;35735;52.226;21.254;2023-06-14T08:08:00;8.80;;;5.47;;
44987;SDS011;35735;52.226;21.254;2023-06-14T08:13:00;9.88;;;5.90;;
44987;SDS011;35735;52.226;21.254;2023-06-14T08:18:01;10.85;;;6.18;;
44987;SDS011;35735;52.226;21.254;2023-06-14T08:23:04;6.72;;;6.03;;
44987;SDS011;35735;52.226;21.254;2023-06-14T08:28:05;9.32;;;5.93;;
44987;SDS011;35735;52.226;21.254;2023-06-14T08:33:05;10.57;;;5.90;;
44987;SDS011;35735;52.226;21.254;2023-06-14T08:38:06;11.52;;;5.72;;
44987;SDS011;35735;52.226;21.254;2023-06-14T08:43:06;9.90;;;6.43;;
44987;SDS011;35735;52.226;21.254;2023-06-14T08:48:07;8.30;;;6.07;;
44987;SDS011;35735;52.226;21.254;2023-06-14T08:53:08;6.37;;;5.70;;
44987;SDS011;35735;52.226;21.254;2023-06-14T08:58:14;7.07;;;5.70;;
44987;SDS011;35735;52.226;21.254;2023-06-14T09:03:14;8.23;;;5.65;;
44987;SDS011;35735;52.226;21.254;2023-06-14T09:08:15;7.07;;;5.57;;
44987;SDS011;35735;52.226;21.254;2023-06-14T09:13:16;9.43;;;5.97;;
44987;SDS011;35735;52.226;21.254;2023-06-14T09:18:18;7.12;;;5.95;;
44987;SDS011;35735;52.226;21.254;2023-06-14T09:23:21;8.48;;;5.50;;
44987;SDS011;35735;52.226;21.254;2023-06-14T09:28:26;6.75;;;5.60;;
44987;SDS011;35735;52.226;21.254;2023-06-14T09:33:27;6.93;;;5.32;;
44987;SDS011;35735;52.226;21.254;2023-06-14T09:38:28;8.60;;;5.12;;
44987;SDS011;35735;52.226;21.254;2023-06-14T09:43:28;8.65;;;4.78;;
44987;SDS011;35735;52.226;21.254;2023-06-14T09:48:29;7.22;;;5.50;;
44987;SDS011;35735;52.226;21.254;2023-06-14T09:53:30;8.30;;;4.97;;
44987;SDS011;35735;52.226;21.254;2023-06-14T09:58:33;8.13;;;4.85;;
44987;SDS011;35735;52.226;21.254;2023-06-14T10:03:39;4.78;;;3.97;;
44987;SDS011;35735;52.226;21.254;2023-06-14T10:08:40;5.28;;;4.30;;
44987;SDS011;35735;52.226;21.254;2023-06-14T10:13:40;7.32;;;4.35;;
44987;SDS011;35735;52.226;21.254;2023-06-14T10:23:52;11.65;;;4.62;;
44987;SDS011;35735;52.226;21.254;2023-06-14T10:28:59;5.87;;;3.90;;
44987;SDS011;35735;52.226;21.254;2023-06-14T10:34:07;6.97;;;4.55;;
44987;SDS011;35735;52.226;21.254;2023-06-14T10:39:08;10.50;;;4.62;;
44987;SDS011;35735;52.226;21.254;2023-06-14T10:44:30;6.68;;;4.53;;
44987;SDS011;35735;52.226;21.254;2023-06-14T10:54:55;10.50;;;4.90;;
44987;SDS011;35735;52.226;21.254;2023-06-14T11:00:02;5.65;;;4.55;;
44987;SDS011;35735;52.226;21.254;2023-06-14T11:05:04;7.22;;;3.87;;
44987;SDS011;35735;52.226;21.254;2023-06-14T11:15:17;6.95;;;3.85;;
44987;SDS011;35735;52.226;21.254;2023-06-14T11:20:18;5.65;;;3.70;;
44987;SDS011;35735;52.226;21.254;2023-06-14T11:25:19;7.57;;;3.50;;
44987;SDS011;35735;52.226;21.254;2023-06-14T11:30:20;4.90;;;3.05;;
44987;SDS011;35735;52.226;21.254;2023-06-14T11:35:23;5.07;;;3.60;;
44987;SDS011;35735;52.226;21.254;2023-06-14T11:40:25;7.78;;;3.65;;
44987;SDS011;35735;52.226;21.254;2023-06-14T11:45:26;4.05;;;3.05;;
44987;SDS011;35735;52.226;21.254;2023-06-14T11:50:28;3.65;;;2.70;;
44987;SDS011;35735;52.226;21.254;2023-06-14T11:55:28;3.67;;;2.22;;
44987;SDS011;35735;52.226;21.254;2023-06-14T12:00:29;3.58;;;2.15;;
44987;SDS011;35735;52.226;21.254;2023-06-14T12:05:29;4.05;;;2.05;;
44987;SDS011;35735;52.226;21.254;2023-06-14T12:10:30;5.62;;;2.15;;
44987;SDS011;35735;52.226;21.254;2023-06-14T12:15:40;3.35;;;2.35;;
44987;SDS011;35735;52.226;21.254;2023-06-14T12:20:40;2.70;;;2.00;;
44987;SDS011;35735;52.226;21.254;2023-06-14T12:25:41;3.20;;;2.00;;
44987;SDS011;35735;52.226;21.254;2023-06-14T12:30:42;7.25;;;2.83;;
44987;SDS011;35735;52.226;21.254;2023-06-14T12:35:42;5.62;;;2.17;;
44987;SDS011;35735;52.226;21.254;2023-06-14T12:40:43;3.50;;;2.00;;
44987;SDS011;35735;52.226;21.254;2023-06-14T12:45:43;3.65;;;2.10;;
44987;SDS011;35735;52.226;21.254;2023-06-14T12:50:44;3.42;;;2.10;;
44987;SDS011;35735;52.226;21.254;2023-06-14T12:55:44;8.32;;;2.03;;
44987;SDS011;35735;52.226;21.254;2023-06-14T13:00:45;3.80;;;2.30;;
44987;SDS011;35735;52.226;21.254;2023-06-14T13:05:47;4.15;;;2.37;;
44987;SDS011;35735;52.226;21.254;2023-06-14T13:10:48;2.22;;;2.00;;
44987;SDS011;35735;52.226;21.254;2023-06-14T13:15:50;3.72;;;2.25;;
44987;SDS011;35735;52.226;21.254;2023-06-14T13:20:50;3.20;;;1.90;;
44987;SDS011;35735;52.226;21.254;2023-06-14T13:25:51;5.43;;;2.10;;
44987;SDS011;35735;52.226;21.254;2023-06-14T13:30:51;4.93;;;2.40;;
44987;SDS011;35735;52.226;21.254;2023-06-14T13:35:52;4.20;;;2.37;;
44987;SDS011;35735;52.226;21.254;2023-06-14T13:40:52;3.42;;;1.95;;
44987;SDS011;35735;52.226;21.254;2023-06-14T13:45:53;3.37;;;2.08;;
44987;SDS011;35735;52.226;21.254;2023-06-14T13:50:54;5.95;;;2.50;;
44987;SDS011;35735;52.226;21.254;2023-06-14T13:55:55;6.35;;;2.30;;
44987;SDS011;35735;52.226;21.254;2023-06-14T14:00:55;5.43;;;2.17;;
44987;SDS011;35735;52.226;21.254;2023-06-14T14:05:56;5.32;;;2.40;;
44987;SDS011;35735;52.226;21.254;2023-06-14T14:10:56;2.05;;;1.83;;
44987;SDS011;35735;52.226;21.254;2023-06-14T14:15:57;3.17;;;2.05;;
44987;SDS011;35735;52.226;21.254;2023-06-14T14:20:57;4.22;;;2.00;;
44987;SDS011;35735;52.226;21.254;2023-06-14T14:25:58;3.28;;;2.10;;
44987;SDS011;35735;52.226;21.254;2023-06-14T14:30:59;3.85;;;1.95;;
44987;SDS011;35735;52.226;21.254;2023-06-14T14:35:59;4.12;;;2.22;;
44987;SDS011;35735;52.226;21.254;2023-06-14T14:41:00;6.87;;;2.53;;
44987;SDS011;35735;52.226;21.254;2023-06-14T14:46:01;4.03;;;2.50;;
44987;SDS011;35735;52.226;21.254;2023-06-14T14:51:01;6.28;;;2.45;;
44987;SDS011;35735;52.226;21.254;2023-06-14T14:56:02;3.92;;;2.87;;
44987;SDS011;35735;52.226;21.254;2023-06-14T15:01:02;6.50;;;3.12;;
44987;SDS011;35735;52.226;21.254;2023-06-14T15:06:03;7.43;;;3.33;;
44987;SDS011;35735;52.226;21.254;2023-06-14T15:11:04;4.93;;;3.03;;
44987;SDS011;35735;52.226;21.254;2023-06-14T15:16:04;5.85;;;3.20;;
44987;SDS011;35735;52.226;21.254;2023-06-14T15:21:05;7.50;;;3.50;;
44987;SDS011;35735;52.226;21.254;2023-06-14T15:26:05;6.90;;;3.50;;
44987;SDS011;35735;52.226;21.254;2023-06-14T15:31:06;4.43;;;3.28;;
44987;SDS011;35735;52.226;21.254;2023-06-14T15:36:06;6.28;;;3.30;;
44987;SDS011;35735;52.226;21.254;2023-06-14T15:41:07;3.92;;;3.53;;
44987;SDS011;35735;52.226;21.254;2023-06-14T15:46:08;4.90;;;3.20;;
44987;SDS011;35735;52.226;21.254;2023-06-14T15:51:08;6.68;;;3.70;;
44987;SDS011;35735;52.226;21.254;2023-06-14T15:56:09;6.10;;;3.60;;
44987;SDS011;35735;52.226;21.254;2023-06-14T16:01:09;5.10;;;3.72;;
44987;SDS011;35735;52.226;21.254;2023-06-14T16:06:10;4.53;;;4.00;;
44987;SDS011;35735;52.226;21.254;2023-06-14T16:11:10;6.85;;;4.12;;
44987;SDS011;35735;52.226;21.254;2023-06-14T16:16:11;5.10;;;4.00;;
44987;SDS011;35735;52.226;21.254;2023-06-14T16:21:12;7.18;;;4.65;;
44987;SDS011;35735;52.226;21.254;2023-06-14T16:26:12;5.07;;;4.47;;
44987;SDS011;35735;52.226;21.254;2023-06-14T16:31:13;6.60;;;4.80;;
44987;SDS011;35735;52.226;21.254;2023-06-14T16:36:13;6.05;;;4.12;;
44987;SDS011;35735;52.226;21.254;2023-06-14T16:41:14;6.57;;;3.92;;
44987;SDS011;35735;52.226;21.254;2023-06-14T16:46:15;9.27;;;4.95;;
44987;SDS011;35735;52.226;21.254;2023-06-14T16:51:28;6.40;;;4.18;;
44987;SDS011;35735;52.226;21.254;2023-06-14T16:56:29;6.55;;;4.45;;
44987;SDS011;35735;52.226;21.254;2023-06-14T17:01:29;8.85;;;4.50;;
44987;SDS011;35735;52.226;21.254;2023-06-14T17:06:30;8.10;;;4.25;;
44987;SDS011;35735;52.226;21.254;2023-06-14T17:11:30;13.60;;;4.53;;
44987;SDS011;35735;52.226;21.254;2023-06-14T17:16:31;7.65;;;4.12;;
44987;SDS011;35735;52.226;21.254;2023-06-14T17:21:32;7.87;;;4.35;;
44987;SDS011;35735;52.226;21.254;2023-06-14T17:26:33;7.97;;;4.50;;
44987;SDS011;35735;52.226;21.254;2023-06-14T17:31:33;8.98;;;4.25;;
44987;SDS011;35735;52.226;21.254;2023-06-14T17:36:34;6.75;;;4.50;;
44987;SDS011;35735;52.226;21.254;2023-06-14T17:41:34;6.18;;;3.92;;
44987;SDS011;35735;52.226;21.254;2023-06-14T17:46:35;10.13;;;4.22;;
44987;SDS011;35735;52.226;21.254;2023-06-14T17:51:35;6.75;;;4.10;;
44987;SDS011;35735;52.226;21.254;2023-06-14T17:56:36;8.15;;;4.90;;
44987;SDS011;35735;52.226;21.254;2023-06-14T18:01:37;7.80;;;5.15;;
44987;SDS011;35735;52.226;21.254;2023-06-14T18:06:37;7.53;;;4.65;;
44987;SDS011;35735;52.226;21.254;2023-06-14T18:11:38;8.80;;;4.90;;
44987;SDS011;35735;52.226;21.254;2023-06-14T18:16:38;8.40;;;5.20;;
44987;SDS011;35735;52.226;21.254;2023-06-14T18:21:39;9.85;;;5.05;;
44987;SDS011;35735;52.226;21.254;2023-06-14T18:26:39;8.68;;;4.70;;
44987;SDS011;35735;52.226;21.254;2023-06-14T18:31:40;5.75;;;5.20;;
44987;SDS011;35735;52.226;21.254;2023-06-14T18:36:43;6.62;;;5.32;;
44987;SDS011;35735;52.226;21.254;2023-06-14T18:41:44;6.15;;;5.15;;
44987;SDS011;35735;52.226;21.254;2023-06-14T18:46:45;7.75;;;6.00;;
44987;SDS011;35735;52.226;21.254;2023-06-14T18:51:46;7.32;;;5.05;;
44987;SDS011;35735;52.226;21.254;2023-06-14T18:56:46;7.53;;;5.15;;
44987;SDS011;35735;52.226;21.254;2023-06-14T19:01:47;7.28;;;4.93;;
44987;SDS011;35735;52.226;21.254;2023-06-14T19:06:47;7.72;;;5.65;;
44987;SDS011;35735;52.226;21.254;2023-06-14T19:11:48;6.15;;;5.37;;
44987;SDS011;35735;52.226;21.254;2023-06-14T19:16:49;7.62;;;5.30;;
44987;SDS011;35735;52.226;21.254;2023-06-14T19:21:50;9.35;;;5.45;;
44987;SDS011;35735;52.226;21.254;2023-06-14T19:26:50;7.05;;;5.45;;
44987;SDS011;35735;52.226;21.254;2023-06-14T19:31:51;10.73;;;5.72;;
44987;SDS011;35735;52.226;21.254;2023-06-14T19:36:51;8.15;;;5.80;;
44987;SDS011;35735;52.226;21.254;2023-06-14T19:41:52;8.93;;;5.62;;
44987;SDS011;35735;52.226;21.254;2023-06-14T19:46:55;7.53;;;5.43;;
44987;SDS011;35735;52.226;21.254;2023-06-14T19:51:55;8.88;;;5.62;;
44987;SDS011;35735;52.226;21.254;2023-06-14T19:56:59;8.38;;;7.50;;
44987;SDS011;35735;52.226;21.254;2023-06-14T20:01:59;9.70;;;6.85;;
44987;SDS011;35735;52.226;21.254;2023-06-14T20:07:03;9.68;;;6.40;;
44987;SDS011;35735;52.226;21.254;2023-06-14T20:12:04;6.55;;;5.43;;
44987;SDS011;35735;52.226;21.254;2023-06-14T20:17:08;6.82;;;5.65;;
44987;SDS011;35735;52.226;21.254;2023-06-14T20:22:09;11.48;;;6.53;;
44987;SDS011;35735;52.226;21.254;2023-06-14T20:27:09;8.57;;;6.37;;
44987;SDS011;35735;52.226;21.254;2023-06-14T20:32:10;9.48;;;7.22;;
44987;SDS011;35735;52.226;21.254;2023-06-14T20:37:10;9.35;;;7.60;;
44987;SDS011;35735;52.226;21.254;2023-06-14T20:42:11;8.75;;;7.05;;
44987;SDS011;35735;52.226;21.254;2023-06-14T20:47:11;11.50;;;6.37;;
44987;SDS011;35735;52.226;21.254;2023-06-14T20:52:12;5.95;;;5.35;;
44987;SDS011;35735;52.226;21.254;2023-06-14T20:57:13;7.90;;;6.55;;
44987;SDS011;35735;52.226;21.254;2023-06-14T21:02:13;11.20;;;8.20;;
44987;SDS011;35735;52.226;21.254;2023-06-14T21:07:14;9.98;;;8.57;;
44987;SDS011;35735;52.226;21.254;2023-06-14T21:12:15;12.45;;;9.73;;
44987;SDS011;35735;52.226;21.254;2023-06-14T21:17:15;11.63;;;8.85;;
44987;SDS011;35735;52.226;21.254;2023-06-14T21:22:16;12.23;;;9.20;;
44987;SDS011;35735;52.226;21.254;2023-06-14T21:27:16;10.80;;;8.40;;
44987;SDS011;35735;52.226;21.254;2023-06-14T21:32:17;12.55;;;9.40;;
44987;SDS011;35735;52.226;21.254;2023-06-14T21:37:17;17.08;;;11.20;;
44987;SDS011;35735;52.226;21.254;2023-06-14T21:42:18;17.65;;;11.88;;
44987;SDS011;35735;52.226;21.254;2023-06-14T21:47:19;20.30;;;12.48;;
44987;SDS011;35735;52.226;21.254;2023-06-14T21:52:19;14.45;;;10.98;;
44987;SDS011;35735;52.226;21.254;2023-06-14T21:57:20;21.12;;;13.32;;
44987;SDS011;35735;52.226;21.254;2023-06-14T22:02:20;37.00;;;20.30;;
44987;SDS011;35735;52.226;21.254;2023-06-14T22:07:21;21.42;;;13.20;;
44987;SDS011;35735;52.226;21.254;2023-06-14T22:12:22;20.85;;;12.02;;
44987;SDS011;35735;52.226;21.254;2023-06-14T22:17:23;20.55;;;12.80;;
44987;SDS011;35735;52.226;21.254;2023-06-14T22:22:23;14.25;;;9.45;;
44987;SDS011;35735;52.226;21.254;2023-06-14T22:27:24;9.55;;;8.55;;
44987;SDS011;35735;52.226;21.254;2023-06-14T22:32:27;12.75;;;9.02;;
44987;SDS011;35735;52.226;21.254;2023-06-14T22:37:28;12.98;;;9.63;;
44987;SDS011;35735;52.226;21.254;2023-06-14T22:42:29;13.98;;;9.52;;
44987;SDS011;35735;52.226;21.254;2023-06-14T22:47:29;12.50;;;10.02;;
44987;SDS011;35735;52.226;21.254;2023-06-14T22:52:30;12.88;;;8.60;;
44987;SDS011;35735;52.226;21.254;2023-06-14T22:57:30;11.80;;;8.65;;
44987;SDS011;35735;52.226;21.254;2023-06-14T23:02:31;11.40;;;7.87;;
44987;SDS011;35735;52.226;21.254;2023-06-14T23:07:32;9.63;;;8.13;;
44987;SDS011;35735;52.226;21.254;2023-06-14T23:12:33;10.75;;;8.48;;
44987;SDS011;35735;52.226;21.254;2023-06-14T23:17:33;10.52;;;7.70;;
44987;SDS011;35735;52.226;21.254;2023-06-14T23:22:34;11.18;;;7.87;;
44987;SDS011;35735;52.226;21.254;2023-06-14T23:27:35;10.02;;;8.00;;
44987;SDS011;35735;52.226;21.254;2023-06-14T23:32:36;11.43;;;8.50;;
44987;SDS011;35735;52.226;21.254;2023-06-14T23:37:36;10.75;;;8.02;;
44987;SDS011;35735;52.226;21.254;2023-06-14T23:42:37;11.27;;;9.23;;
44987;SDS011;35735;52.226;21.254;2023-06-14T23:47:38;10.50;;;8.40;;
44987;SDS011;35735;52.226;21.254;2023-06-14T23:52:38;10.15;;;7.80;;
44987;SDS011;35735;52.226;21.254;2023-06-14T23:57:39;12.93;;;8.85;;
